sensor_id;sensor_type;location;lat;lon;timestamp;temperature;humidity
18658;DHT22;9458;50.942;5.074;2023-01-15T00:01:18;9.20;99.90
18658;DHT22;9458;50.942;5.074;2023-01-15T00:03:47;9.20;99.90
18658;DHT22;9458;50.942;5.074;2023-01-15T00:06:15;9.20;99.90
18658;DHT22;9458;50.942;5.074;2023-01-15T00:08:48;9.20;99.90
18658;DHT22;9458;50.942;5.074;2023-01-15T00:11:17;9.20;99.90
18658;DHT22;9458;50.942;5.074;2023-01-15T00:13:46;9.20;99.90
18658;DHT22;9458;50.942;5.074;2023-01-15T00:16:16;9.20;99.90
18658;DHT22;9458;50.942;5.074;2023-01-15T00:18:48;9.20;99.90
18658;DHT22;9458;50.942;5.074;2023-01-15T00:21:17;9.20;99.90
18658;DHT22;9458;50.942;5.074;2023-01-15T00:23:44;9.20;99.90
18658;DHT22;9458;50.942;5.074;2023-01-15T00:26:32;9.20;99.90
18658;DHT22;9458;50.942;5.074;2023-01-15T00:29:18;9.20;99.90
18658;DHT22;9458;50.942;5.074;2023-01-15T00:31:51;9.20;99.90
18658;DHT22;9458;50.942;5.074;2023-01-15T00:34:20;9.10;99.90
18658;DHT22;9458;50.942;5.074;2023-01-15T00:36:49;9.10;99.90
18658;DHT22;9458;50.942;5.074;2023-01-15T00:39:17;9.10;99.90
18658;DHT22;9458;50.942;5.074;2023-01-15T00:41:47;9.10;99.90
18658;DHT22;9458;50.942;5.074;2023-01-15T00:44:16;9.10;99.90
18658;DHT22;9458;50.942;5.074;2023-01-15T00:46:43;9.10;99.90
18658;DHT22;9458;50.942;5.074;2023-01-15T00:49:11;9.00;99.90
18658;DHT22;9458;50.942;5.074;2023-01-15T00:51:39;9.00;99.90
18658;DHT22;9458;50.942;5.074;2023-01-15T00:54:07;9.00;99.90
18658;DHT22;9458;50.942;5.074;2023-01-15T00:56:35;9.00;99.90
18658;DHT22;9458;50.942;5.074;2023-01-15T00:59:05;9.10;99.90
18658;DHT22;9458;50.942;5.074;2023-01-15T01:01:33;9.10;99.90
18658;DHT22;9458;50.942;5.074;2023-01-15T01:04:11;9.00;99.90
18658;DHT22;9458;50.942;5.074;2023-01-15T01:06:39;9.00;99.90
18658;DHT22;9458;50.942;5.074;2023-01-15T01:09:12;9.00;99.90
18658;DHT22;9458;50.942;5.074;2023-01-15T01:11:42;9.00;99.90
18658;DHT22;9458;50.942;5.074;2023-01-15T01:14:14;9.00;99.90
18658;DHT22;9458;50.942;5.074;2023-01-15T01:16:44;9.00;99.90
18658;DHT22;9458;50.942;5.074;2023-01-15T01:19:16;8.90;99.90
18658;DHT22;9458;50.942;5.074;2023-01-15T01:21:47;9.00;99.90
18658;DHT22;9458;50.942;5.074;2023-01-15T01:24:19;8.90;99.90
18658;DHT22;9458;50.942;5.074;2023-01-15T01:26:48;8.90;99.90
18658;DHT22;9458;50.942;5.074;2023-01-15T01:29:20;8.90;99.90
18658;DHT22;9458;50.942;5.074;2023-01-15T01:31:48;9.00;99.90
18658;DHT22;9458;50.942;5.074;2023-01-15T01:34:17;9.00;99.90
18658;DHT22;9458;50.942;5.074;2023-01-15T01:36:46;9.00;99.90
18658;DHT22;9458;50.942;5.074;2023-01-15T01:39:20;9.00;99.90
18658;DHT22;9458;50.942;5.074;2023-01-15T01:41:49;9.00;99.90
18658;DHT22;9458;50.942;5.074;2023-01-15T01:47:26;8.90;99.90
18658;DHT22;9458;50.942;5.074;2023-01-15T01:50:02;8.90;99.90
18658;DHT22;9458;50.942;5.074;2023-01-15T01:52:37;8.90;99.90
18658;DHT22;9458;50.942;5.074;2023-01-15T01:55:07;9.00;99.90
18658;DHT22;9458;50.942;5.074;2023-01-15T01:57:38;9.00;99.90
18658;DHT22;9458;50.942;5.074;2023-01-15T02:00:08;8.90;99.90
18658;DHT22;9458;50.942;5.074;2023-01-15T02:02:45;8.90;99.90
18658;DHT22;9458;50.942;5.074;2023-01-15T02:05:20;8.90;99.90
18658;DHT22;9458;50.942;5.074;2023-01-15T02:07:53;8.90;99.90
18658;DHT22;9458;50.942;5.074;2023-01-15T02:10:23;8.90;99.90
18658;DHT22;9458;50.942;5.074;2023-01-15T02:12:59;8.90;99.90
18658;DHT22;9458;50.942;5.074;2023-01-15T02:15:33;8.90;99.90
18658;DHT22;9458;50.942;5.074;2023-01-15T02:18:09;8.90;99.90
18658;DHT22;9458;50.942;5.074;2023-01-15T02:20:43;8.90;99.90
18658;DHT22;9458;50.942;5.074;2023-01-15T02:23:46;8.90;99.90
18658;DHT22;9458;50.942;5.074;2023-01-15T02:29:14;8.80;99.90
18658;DHT22;9458;50.942;5.074;2023-01-15T02:31:49;8.80;99.90
18658;DHT22;9458;50.942;5.074;2023-01-15T02:34:21;8.80;99.90
18658;DHT22;9458;50.942;5.074;2023-01-15T02:37:00;8.80;99.90
18658;DHT22;9458;50.942;5.074;2023-01-15T02:39:29;8.90;99.90
18658;DHT22;9458;50.942;5.074;2023-01-15T02:42:03;8.80;99.90
18658;DHT22;9458;50.942;5.074;2023-01-15T02:44:36;8.80;99.90
18658;DHT22;9458;50.942;5.074;2023-01-15T02:47:06;8.80;99.90
18658;DHT22;9458;50.942;5.074;2023-01-15T02:49:38;8.80;99.90
18658;DHT22;9458;50.942;5.074;2023-01-15T02:52:12;8.80;99.90
18658;DHT22;9458;50.942;5.074;2023-01-15T02:54:44;8.80;99.90
18658;DHT22;9458;50.942;5.074;2023-01-15T02:57:14;8.80;99.90
18658;DHT22;9458;50.942;5.074;2023-01-15T02:59:47;8.80;99.90
18658;DHT22;9458;50.942;5.074;2023-01-15T03:02:17;8.70;99.90
18658;DHT22;9458;50.942;5.074;2023-01-15T03:15:40;8.70;99.90
18658;DHT22;9458;50.942;5.074;2023-01-15T03:18:28;8.70;99.90
18658;DHT22;9458;50.942;5.074;2023-01-15T03:21:03;8.70;99.90
18658;DHT22;9458;50.942;5.074;2023-01-15T03:23:36;8.70;99.90
18658;DHT22;9458;50.942;5.074;2023-01-15T03:26:05;8.70;99.90
18658;DHT22;9458;50.942;5.074;2023-01-15T03:28:35;8.70;99.90
18658;DHT22;9458;50.942;5.074;2023-01-15T03:31:06;8.60;99.90
18658;DHT22;9458;50.942;5.074;2023-01-15T03:33:34;8.70;99.90
18658;DHT22;9458;50.942;5.074;2023-01-15T03:36:04;8.60;99.90
18658;DHT22;9458;50.942;5.074;2023-01-15T03:38:33;8.60;99.90
18658;DHT22;9458;50.942;5.074;2023-01-15T03:41:14;8.60;99.90
18658;DHT22;9458;50.942;5.074;2023-01-15T03:43:59;8.60;99.90
18658;DHT22;9458;50.942;5.074;2023-01-15T03:46:38;8.60;99.90
18658;DHT22;9458;50.942;5.074;2023-01-15T03:49:14;8.60;99.90
18658;DHT22;9458;50.942;5.074;2023-01-15T03:51:51;8.60;99.90
18658;DHT22;9458;50.942;5.074;2023-01-15T03:54:26;8.50;99.90
18658;DHT22;9458;50.942;5.074;2023-01-15T03:57:00;8.60;99.90
18658;DHT22;9458;50.942;5.074;2023-01-15T03:59:35;8.50;99.90
18658;DHT22;9458;50.942;5.074;2023-01-15T04:02:08;8.50;99.90
18658;DHT22;9458;50.942;5.074;2023-01-15T04:04:39;8.50;99.90
18658;DHT22;9458;50.942;5.074;2023-01-15T04:07:09;8.50;99.90
18658;DHT22;9458;50.942;5.074;2023-01-15T04:09:45;8.50;99.90
18658;DHT22;9458;50.942;5.074;2023-01-15T04:12:15;8.50;99.90
18658;DHT22;9458;50.942;5.074;2023-01-15T04:14:43;8.50;99.90
18658;DHT22;9458;50.942;5.074;2023-01-15T04:17:13;8.50;99.90
18658;DHT22;9458;50.942;5.074;2023-01-15T04:19:41;8.50;99.90
18658;DHT22;9458;50.942;5.074;2023-01-15T04:22:10;8.50;99.90
18658;DHT22;9458;50.942;5.074;2023-01-15T04:24:38;8.50;99.90
18658;DHT22;9458;50.942;5.074;2023-01-15T04:27:05;8.60;99.90
18658;DHT22;9458;50.942;5.074;2023-01-15T04:29:33;8.50;99.90
18658;DHT22;9458;50.942;5.074;2023-01-15T04:32:01;8.50;99.90
18658;DHT22;9458;50.942;5.074;2023-01-15T04:34:30;8.50;99.90
18658;DHT22;9458;50.942;5.074;2023-01-15T04:37:00;8.50;99.90
18658;DHT22;9458;50.942;5.074;2023-01-15T04:39:28;8.40;99.90
18658;DHT22;9458;50.942;5.074;2023-01-15T04:41:56;8.40;99.90
18658;DHT22;9458;50.942;5.074;2023-01-15T04:44:41;8.40;99.90
18658;DHT22;9458;50.942;5.074;2023-01-15T04:47:09;8.40;99.90
18658;DHT22;9458;50.942;5.074;2023-01-15T04:49:39;8.40;99.90
18658;DHT22;9458;50.942;5.074;2023-01-15T04:52:07;8.40;99.90
18658;DHT22;9458;50.942;5.074;2023-01-15T04:54:35;8.40;99.90
18658;DHT22;9458;50.942;5.074;2023-01-15T04:57:05;8.40;99.90
18658;DHT22;9458;50.942;5.074;2023-01-15T04:59:33;8.40;99.90
18658;DHT22;9458;50.942;5.074;2023-01-15T05:02:01;8.40;99.90
18658;DHT22;9458;50.942;5.074;2023-01-15T05:04:29;8.30;99.90
18658;DHT22;9458;50.942;5.074;2023-01-15T05:06:59;8.30;99.90
18658;DHT22;9458;50.942;5.074;2023-01-15T05:09:28;8.30;99.90
18658;DHT22;9458;50.942;5.074;2023-01-15T05:11:56;8.20;99.90
18658;DHT22;9458;50.942;5.074;2023-01-15T05:14:25;8.20;99.90
18658;DHT22;9458;50.942;5.074;2023-01-15T05:16:53;8.30;99.90
18658;DHT22;9458;50.942;5.074;2023-01-15T05:19:20;8.30;99.90
18658;DHT22;9458;50.942;5.074;2023-01-15T05:21:49;8.30;99.90
18658;DHT22;9458;50.942;5.074;2023-01-15T05:24:19;8.20;99.90
18658;DHT22;9458;50.942;5.074;2023-01-15T05:26:47;8.30;99.90
18658;DHT22;9458;50.942;5.074;2023-01-15T05:29:16;8.30;99.90
18658;DHT22;9458;50.942;5.074;2023-01-15T05:31:44;8.30;99.90
18658;DHT22;9458;50.942;5.074;2023-01-15T05:34:12;8.20;99.90
18658;DHT22;9458;50.942;5.074;2023-01-15T05:36:40;8.20;99.90
18658;DHT22;9458;50.942;5.074;2023-01-15T05:39:08;8.20;99.90
18658;DHT22;9458;50.942;5.074;2023-01-15T05:41:37;8.20;99.90
18658;DHT22;9458;50.942;5.074;2023-01-15T05:44:19;8.20;99.90
18658;DHT22;9458;50.942;5.074;2023-01-15T05:46:49;8.20;99.90
18658;DHT22;9458;50.942;5.074;2023-01-15T05:49:19;8.30;99.90
18658;DHT22;9458;50.942;5.074;2023-01-15T05:51:48;8.20;99.90
18658;DHT22;9458;50.942;5.074;2023-01-15T05:54:19;8.20;99.90
18658;DHT22;9458;50.942;5.074;2023-01-15T05:56:50;8.20;99.90
18658;DHT22;9458;50.942;5.074;2023-01-15T05:59:21;8.20;99.90
18658;DHT22;9458;50.942;5.074;2023-01-15T06:01:51;8.20;99.90
18658;DHT22;9458;50.942;5.074;2023-01-15T06:04:19;8.20;99.90
18658;DHT22;9458;50.942;5.074;2023-01-15T06:06:48;8.10;99.90
18658;DHT22;9458;50.942;5.074;2023-01-15T06:09:17;8.10;99.90
18658;DHT22;9458;50.942;5.074;2023-01-15T06:11:46;8.10;99.90
18658;DHT22;9458;50.942;5.074;2023-01-15T06:14:15;8.10;99.90
18658;DHT22;9458;50.942;5.074;2023-01-15T06:16:43;8.00;99.90
18658;DHT22;9458;50.942;5.074;2023-01-15T06:19:12;8.00;99.90
18658;DHT22;9458;50.942;5.074;2023-01-15T06:21:40;8.00;99.90
18658;DHT22;9458;50.942;5.074;2023-01-15T06:24:08;8.00;99.90
18658;DHT22;9458;50.942;5.074;2023-01-15T06:26:36;8.00;99.90
18658;DHT22;9458;50.942;5.074;2023-01-15T06:29:04;8.00;99.90
18658;DHT22;9458;50.942;5.074;2023-01-15T06:31:33;8.00;99.90
18658;DHT22;9458;50.942;5.074;2023-01-15T06:34:02;8.00;99.90
18658;DHT22;9458;50.942;5.074;2023-01-15T06:36:30;8.00;99.90
18658;DHT22;9458;50.942;5.074;2023-01-15T06:38:58;8.00;99.90
18658;DHT22;9458;50.942;5.074;2023-01-15T06:41:26;8.00;99.90
18658;DHT22;9458;50.942;5.074;2023-01-15T06:44:13;7.90;99.90
18658;DHT22;9458;50.942;5.074;2023-01-15T06:47:11;8.00;99.90
18658;DHT22;9458;50.942;5.074;2023-01-15T06:49:49;7.90;99.90
18658;DHT22;9458;50.942;5.074;2023-01-15T06:52:17;7.90;99.90
18658;DHT22;9458;50.942;5.074;2023-01-15T06:54:45;7.90;99.90
18658;DHT22;9458;50.942;5.074;2023-01-15T06:57:13;7.90;99.90
18658;DHT22;9458;50.942;5.074;2023-01-15T06:59:41;7.90;99.90
18658;DHT22;9458;50.942;5.074;2023-01-15T07:02:10;7.80;99.90
18658;DHT22;9458;50.942;5.074;2023-01-15T07:04:42;7.80;99.90
18658;DHT22;9458;50.942;5.074;2023-01-15T07:07:13;7.70;99.90
18658;DHT22;9458;50.942;5.074;2023-01-15T07:09:41;7.70;99.90
18658;DHT22;9458;50.942;5.074;2023-01-15T07:12:08;7.70;99.90
18658;DHT22;9458;50.942;5.074;2023-01-15T07:14:36;7.60;99.90
18658;DHT22;9458;50.942;5.074;2023-01-15T07:17:04;7.70;99.90
18658;DHT22;9458;50.942;5.074;2023-01-15T07:19:33;7.60;99.90
18658;DHT22;9458;50.942;5.074;2023-01-15T07:22:01;7.60;99.90
18658;DHT22;9458;50.942;5.074;2023-01-15T07:24:29;7.60;99.90
18658;DHT22;9458;50.942;5.074;2023-01-15T07:26:57;7.60;99.90
18658;DHT22;9458;50.942;5.074;2023-01-15T07:29:25;7.50;99.90
18658;DHT22;9458;50.942;5.074;2023-01-15T07:31:53;7.50;99.90
18658;DHT22;9458;50.942;5.074;2023-01-15T07:34:21;7.50;99.90
18658;DHT22;9458;50.942;5.074;2023-01-15T07:36:50;7.50;99.90
18658;DHT22;9458;50.942;5.074;2023-01-15T07:39:18;7.50;99.90
18658;DHT22;9458;50.942;5.074;2023-01-15T07:41:47;7.40;99.90
18658;DHT22;9458;50.942;5.074;2023-01-15T07:44:32;7.40;99.90
18658;DHT22;9458;50.942;5.074;2023-01-15T07:47:19;7.40;99.90
18658;DHT22;9458;50.942;5.074;2023-01-15T07:50:06;7.40;99.90
18658;DHT22;9458;50.942;5.074;2023-01-15T07:52:37;7.30;99.90
18658;DHT22;9458;50.942;5.074;2023-01-15T07:55:05;7.40;99.90
18658;DHT22;9458;50.942;5.074;2023-01-15T07:57:33;7.40;99.90
18658;DHT22;9458;50.942;5.074;2023-01-15T08:00:01;7.30;99.90
18658;DHT22;9458;50.942;5.074;2023-01-15T08:02:33;7.30;99.90
18658;DHT22;9458;50.942;5.074;2023-01-15T08:05:01;7.40;99.90
18658;DHT22;9458;50.942;5.074;2023-01-15T08:07:37;7.40;99.90
18658;DHT22;9458;50.942;5.074;2023-01-15T08:10:06;7.30;99.90
18658;DHT22;9458;50.942;5.074;2023-01-15T08:12:35;7.30;99.90
18658;DHT22;9458;50.942;5.074;2023-01-15T08:15:19;7.30;99.90
18658;DHT22;9458;50.942;5.074;2023-01-15T08:17:48;7.30;99.90
18658;DHT22;9458;50.942;5.074;2023-01-15T08:20:17;7.30;99.90
18658;DHT22;9458;50.942;5.074;2023-01-15T08:22:48;7.20;99.90
18658;DHT22;9458;50.942;5.074;2023-01-15T08:25:18;7.20;99.90
18658;DHT22;9458;50.942;5.074;2023-01-15T08:27:46;7.20;99.90
18658;DHT22;9458;50.942;5.074;2023-01-15T08:30:17;7.20;99.90
18658;DHT22;9458;50.942;5.074;2023-01-15T08:32:45;7.20;99.90
18658;DHT22;9458;50.942;5.074;2023-01-15T08:35:12;7.20;99.90
18658;DHT22;9458;50.942;5.074;2023-01-15T08:37:40;7.40;99.90
18658;DHT22;9458;50.942;5.074;2023-01-15T08:40:12;8.10;99.90
18658;DHT22;9458;50.942;5.074;2023-01-15T08:42:39;9.00;99.90
18658;DHT22;9458;50.942;5.074;2023-01-15T08:45:08;9.60;99.90
18658;DHT22;9458;50.942;5.074;2023-01-15T08:47:36;9.90;99.90
18658;DHT22;9458;50.942;5.074;2023-01-15T08:50:04;10.20;99.90
18658;DHT22;9458;50.942;5.074;2023-01-15T08:52:34;10.40;99.90
18658;DHT22;9458;50.942;5.074;2023-01-15T08:55:03;10.10;99.90
18658;DHT22;9458;50.942;5.074;2023-01-15T08:57:33;9.90;99.90
18658;DHT22;9458;50.942;5.074;2023-01-15T09:00:00;9.60;99.90
18658;DHT22;9458;50.942;5.074;2023-01-15T09:02:29;9.50;99.90
18658;DHT22;9458;50.942;5.074;2023-01-15T09:04:57;9.40;99.90
18658;DHT22;9458;50.942;5.074;2023-01-15T09:07:24;9.40;99.90
18658;DHT22;9458;50.942;5.074;2023-01-15T09:09:52;9.50;99.90
18658;DHT22;9458;50.942;5.074;2023-01-15T09:12:20;9.60;99.90
18658;DHT22;9458;50.942;5.074;2023-01-15T09:14:52;9.90;99.90
18658;DHT22;9458;50.942;5.074;2023-01-15T09:17:21;10.10;99.90
18658;DHT22;9458;50.942;5.074;2023-01-15T09:19:49;10.00;99.90
18658;DHT22;9458;50.942;5.074;2023-01-15T09:22:18;10.00;99.90
18658;DHT22;9458;50.942;5.074;2023-01-15T09:24:45;9.90;99.90
18658;DHT22;9458;50.942;5.074;2023-01-15T09:27:13;9.70;99.90
18658;DHT22;9458;50.942;5.074;2023-01-15T09:29:42;9.70;99.90
18658;DHT22;9458;50.942;5.074;2023-01-15T09:32:11;9.60;99.90
18658;DHT22;9458;50.942;5.074;2023-01-15T09:34:40;9.50;99.90
18658;DHT22;9458;50.942;5.074;2023-01-15T09:37:08;9.40;99.90
18658;DHT22;9458;50.942;5.074;2023-01-15T09:39:36;9.40;99.90
18658;DHT22;9458;50.942;5.074;2023-01-15T09:42:12;9.40;99.90
18658;DHT22;9458;50.942;5.074;2023-01-15T09:45:16;9.30;99.90
18658;DHT22;9458;50.942;5.074;2023-01-15T09:48:00;9.30;99.90
18658;DHT22;9458;50.942;5.074;2023-01-15T09:50:42;9.20;99.90
18658;DHT22;9458;50.942;5.074;2023-01-15T09:53:26;9.20;99.90
18658;DHT22;9458;50.942;5.074;2023-01-15T09:56:00;9.10;99.90
18658;DHT22;9458;50.942;5.074;2023-01-15T09:58:32;9.00;99.90
18658;DHT22;9458;50.942;5.074;2023-01-15T10:01:02;9.00;99.90
18658;DHT22;9458;50.942;5.074;2023-01-15T10:03:38;9.00;99.90
18658;DHT22;9458;50.942;5.074;2023-01-15T10:06:12;9.00;99.90
18658;DHT22;9458;50.942;5.074;2023-01-15T10:08:44;9.10;99.90
18658;DHT22;9458;50.942;5.074;2023-01-15T10:11:30;9.10;99.90
18658;DHT22;9458;50.942;5.074;2023-01-15T10:14:25;9.10;99.90
18658;DHT22;9458;50.942;5.074;2023-01-15T10:17:12;8.90;99.90
18658;DHT22;9458;50.942;5.074;2023-01-15T10:19:43;8.90;99.90
18658;DHT22;9458;50.942;5.074;2023-01-15T10:22:27;9.00;99.90
18658;DHT22;9458;50.942;5.074;2023-01-15T10:25:14;9.00;99.90
18658;DHT22;9458;50.942;5.074;2023-01-15T10:27:45;9.00;99.90
18658;DHT22;9458;50.942;5.074;2023-01-15T10:30:15;9.00;99.90
18658;DHT22;9458;50.942;5.074;2023-01-15T10:32:45;9.00;99.90
18658;DHT22;9458;50.942;5.074;2023-01-15T10:35:29;9.00;99.90
18658;DHT22;9458;50.942;5.074;2023-01-15T10:38:06;8.90;99.90
18658;DHT22;9458;50.942;5.074;2023-01-15T10:40:50;8.80;99.90
18658;DHT22;9458;50.942;5.074;2023-01-15T10:43:34;8.90;99.90
18658;DHT22;9458;50.942;5.074;2023-01-15T10:46:10;8.90;99.90
18658;DHT22;9458;50.942;5.074;2023-01-15T10:48:43;8.90;99.90
18658;DHT22;9458;50.942;5.074;2023-01-15T10:51:17;8.80;99.90
18658;DHT22;9458;50.942;5.074;2023-01-15T10:53:49;8.80;99.90
18658;DHT22;9458;50.942;5.074;2023-01-15T10:56:27;8.80;99.90
18658;DHT22;9458;50.942;5.074;2023-01-15T10:59:05;8.80;99.90
18658;DHT22;9458;50.942;5.074;2023-01-15T11:01:39;8.80;99.90
18658;DHT22;9458;50.942;5.074;2023-01-15T11:04:16;8.80;99.90
18658;DHT22;9458;50.942;5.074;2023-01-15T11:06:46;8.60;99.90
18658;DHT22;9458;50.942;5.074;2023-01-15T11:09:22;8.50;99.90
18658;DHT22;9458;50.942;5.074;2023-01-15T11:12:11;8.60;99.90
18658;DHT22;9458;50.942;5.074;2023-01-15T11:14:59;8.50;99.90
18658;DHT22;9458;50.942;5.074;2023-01-15T11:17:48;8.50;99.90
18658;DHT22;9458;50.942;5.074;2023-01-15T11:20:51;8.50;99.90
18658;DHT22;9458;50.942;5.074;2023-01-15T11:23:20;8.50;99.90
18658;DHT22;9458;50.942;5.074;2023-01-15T11:29:30;8.60;99.90
18658;DHT22;9458;50.942;5.074;2023-01-15T11:31:59;8.60;99.90
18658;DHT22;9458;50.942;5.074;2023-01-15T11:34:27;8.60;99.90
18658;DHT22;9458;50.942;5.074;2023-01-15T11:37:02;8.60;99.90
18658;DHT22;9458;50.942;5.074;2023-01-15T11:39:32;8.60;99.90
18658;DHT22;9458;50.942;5.074;2023-01-15T11:42:01;8.70;99.90
18658;DHT22;9458;50.942;5.074;2023-01-15T11:44:54;8.70;99.90
18658;DHT22;9458;50.942;5.074;2023-01-15T11:47:39;8.70;99.90
18658;DHT22;9458;50.942;5.074;2023-01-15T11:50:45;8.80;99.90
18658;DHT22;9458;50.942;5.074;2023-01-15T11:53:32;8.80;99.90
18658;DHT22;9458;50.942;5.074;2023-01-15T11:56:25;8.90;99.90
18658;DHT22;9458;50.942;5.074;2023-01-15T11:58:55;8.90;99.90
18658;DHT22;9458;50.942;5.074;2023-01-15T12:01:27;9.00;99.90
18658;DHT22;9458;50.942;5.074;2023-01-15T12:26:26;8.90;99.90
18658;DHT22;9458;50.942;5.074;2023-01-15T12:34:16;8.90;99.90
18658;DHT22;9458;50.942;5.074;2023-01-15T13:24:33;8.80;99.90
18658;DHT22;9458;50.942;5.074;2023-01-15T13:27:19;8.80;99.90
18658;DHT22;9458;50.942;5.074;2023-01-15T13:29:59;8.80;99.90
18658;DHT22;9458;50.942;5.074;2023-01-15T14:16:48;8.70;99.90
18658;DHT22;9458;50.942;5.074;2023-01-15T14:19:38;8.70;99.90
18658;DHT22;9458;50.942;5.074;2023-01-15T14:22:41;8.70;99.90
18658;DHT22;9458;50.942;5.074;2023-01-15T14:28:17;8.60;99.90
18658;DHT22;9458;50.942;5.074;2023-01-15T14:31:32;8.60;99.90
18658;DHT22;9458;50.942;5.074;2023-01-15T14:34:35;8.60;99.90
18658;DHT22;9458;50.942;5.074;2023-01-15T14:37:22;8.60;99.90
18658;DHT22;9458;50.942;5.074;2023-01-15T14:39:55;8.50;99.90
18658;DHT22;9458;50.942;5.074;2023-01-15T14:42:53;8.50;99.90
18658;DHT22;9458;50.942;5.074;2023-01-15T15:53:30;8.40;99.90
18658;DHT22;9458;50.942;5.074;2023-01-15T15:56:12;8.30;99.90
18658;DHT22;9458;50.942;5.074;2023-01-15T15:58:45;8.30;99.90
18658;DHT22;9458;50.942;5.074;2023-01-15T16:01:18;8.30;99.90
18658;DHT22;9458;50.942;5.074;2023-01-15T16:03:47;8.30;99.90
18658;DHT22;9458;50.942;5.074;2023-01-15T16:06:20;8.30;99.90
18658;DHT22;9458;50.942;5.074;2023-01-15T16:08:54;8.20;99.90
18658;DHT22;9458;50.942;5.074;2023-01-15T16:11:35;8.20;99.90
18658;DHT22;9458;50.942;5.074;2023-01-15T16:14:05;8.20;99.90
18658;DHT22;9458;50.942;5.074;2023-01-15T16:58:51;8.00;99.90
18658;DHT22;9458;50.942;5.074;2023-01-15T17:01:34;8.00;99.90
18658;DHT22;9458;50.942;5.074;2023-01-15T17:04:22;8.00;99.90
18658;DHT22;9458;50.942;5.074;2023-01-15T17:06:55;8.00;99.90
18658;DHT22;9458;50.942;5.074;2023-01-15T17:09:30;8.00;99.90
18658;DHT22;9458;50.942;5.074;2023-01-15T17:12:05;8.00;99.90
18658;DHT22;9458;50.942;5.074;2023-01-15T17:14:35;8.00;99.90
18658;DHT22;9458;50.942;5.074;2023-01-15T17:17:16;7.90;99.90
18658;DHT22;9458;50.942;5.074;2023-01-15T17:19:52;7.90;99.90
18658;DHT22;9458;50.942;5.074;2023-01-15T17:22:25;7.80;99.90
18658;DHT22;9458;50.942;5.074;2023-01-15T17:25:21;7.70;99.90
18658;DHT22;9458;50.942;5.074;2023-01-15T17:27:50;7.70;99.90
18658;DHT22;9458;50.942;5.074;2023-01-15T17:30:20;7.70;99.90
18658;DHT22;9458;50.942;5.074;2023-01-15T17:32:51;7.70;99.90
18658;DHT22;9458;50.942;5.074;2023-01-15T17:35:26;7.60;99.90
18658;DHT22;9458;50.942;5.074;2023-01-15T17:37:57;7.60;99.90
18658;DHT22;9458;50.942;5.074;2023-01-15T17:40:29;7.60;99.90
18658;DHT22;9458;50.942;5.074;2023-01-15T17:42:57;7.60;99.90
18658;DHT22;9458;50.942;5.074;2023-01-15T17:45:36;7.60;99.90
18658;DHT22;9458;50.942;5.074;2023-01-15T17:48:04;7.60;99.90
18658;DHT22;9458;50.942;5.074;2023-01-15T17:50:35;7.60;99.90
18658;DHT22;9458;50.942;5.074;2023-01-15T17:53:03;7.70;99.90
18658;DHT22;9458;50.942;5.074;2023-01-15T17:55:36;7.70;99.90
18658;DHT22;9458;50.942;5.074;2023-01-15T18:02:26;7.60;99.90
18658;DHT22;9458;50.942;5.074;2023-01-15T18:05:12;7.60;99.90
18658;DHT22;9458;50.942;5.074;2023-01-15T18:07:53;7.60;99.90
18658;DHT22;9458;50.942;5.074;2023-01-15T18:10:24;7.70;99.90
18658;DHT22;9458;50.942;5.074;2023-01-15T18:12:57;7.60;99.90
18658;DHT22;9458;50.942;5.074;2023-01-15T18:15:29;7.70;99.90
18658;DHT22;9458;50.942;5.074;2023-01-15T18:18:01;7.70;99.90
18658;DHT22;9458;50.942;5.074;2023-01-15T18:20:29;7.70;99.90
18658;DHT22;9458;50.942;5.074;2023-01-15T18:22:56;7.70;99.90
18658;DHT22;9458;50.942;5.074;2023-01-15T18:25:28;7.80;99.90
18658;DHT22;9458;50.942;5.074;2023-01-15T18:27:59;7.90;99.90
18658;DHT22;9458;50.942;5.074;2023-01-15T18:30:29;7.90;99.90
18658;DHT22;9458;50.942;5.074;2023-01-15T18:33:03;7.80;99.90
18658;DHT22;9458;50.942;5.074;2023-01-15T18:35:34;7.80;99.90
18658;DHT22;9458;50.942;5.074;2023-01-15T18:38:06;7.80;99.90
18658;DHT22;9458;50.942;5.074;2023-01-15T18:40:46;7.80;99.90
18658;DHT22;9458;50.942;5.074;2023-01-15T18:43:20;7.80;99.90
18658;DHT22;9458;50.942;5.074;2023-01-15T18:53:47;7.80;99.90
18658;DHT22;9458;50.942;5.074;2023-01-15T19:06:45;7.80;99.90
18658;DHT22;9458;50.942;5.074;2023-01-15T19:41:25;7.80;99.90
18658;DHT22;9458;50.942;5.074;2023-01-15T19:44:32;7.70;99.90
18658;DHT22;9458;50.942;5.074;2023-01-15T19:47:35;7.70;99.90
18658;DHT22;9458;50.942;5.074;2023-01-15T19:50:46;7.70;99.90
18658;DHT22;9458;50.942;5.074;2023-01-15T19:53:49;7.80;99.90
18658;DHT22;9458;50.942;5.074;2023-01-15T20:14:42;7.60;99.90
18658;DHT22;9458;50.942;5.074;2023-01-15T20:17:57;7.50;99.90
18658;DHT22;9458;50.942;5.074;2023-01-15T20:20:36;7.50;99.90
18658;DHT22;9458;50.942;5.074;2023-01-15T20:30:25;7.40;99.90
18658;DHT22;9458;50.942;5.074;2023-01-15T20:32:55;7.50;99.90
18658;DHT22;9458;50.942;5.074;2023-01-15T20:35:25;7.50;99.90
18658;DHT22;9458;50.942;5.074;2023-01-15T20:37:54;7.50;99.90
18658;DHT22;9458;50.942;5.074;2023-01-15T20:40:24;7.50;99.90
18658;DHT22;9458;50.942;5.074;2023-01-15T20:42:53;7.50;99.90
18658;DHT22;9458;50.942;5.074;2023-01-15T20:45:39;7.50;99.90
18658;DHT22;9458;50.942;5.074;2023-01-15T20:48:38;7.60;99.90
18658;DHT22;9458;50.942;5.074;2023-01-15T20:51:24;7.50;99.90
18658;DHT22;9458;50.942;5.074;2023-01-15T20:53:56;7.50;99.90
18658;DHT22;9458;50.942;5.074;2023-01-15T20:56:26;7.60;99.90
18658;DHT22;9458;50.942;5.074;2023-01-15T20:59:22;7.50;99.90
18658;DHT22;9458;50.942;5.074;2023-01-15T21:01:56;7.50;99.90
18658;DHT22;9458;50.942;5.074;2023-01-15T21:04:27;7.50;99.90
18658;DHT22;9458;50.942;5.074;2023-01-15T21:06:59;7.60;99.90
18658;DHT22;9458;50.942;5.074;2023-01-15T21:09:28;7.50;99.90
18658;DHT22;9458;50.942;5.074;2023-01-15T21:12:00;7.60;99.90
18658;DHT22;9458;50.942;5.074;2023-01-15T21:14:34;7.50;99.90
18658;DHT22;9458;50.942;5.074;2023-01-15T21:17:03;7.40;99.90
18658;DHT22;9458;50.942;5.074;2023-01-15T21:19:31;7.40;99.90
18658;DHT22;9458;50.942;5.074;2023-01-15T21:21:59;7.20;99.90
18658;DHT22;9458;50.942;5.074;2023-01-15T21:24:26;7.20;99.90
18658;DHT22;9458;50.942;5.074;2023-01-15T21:26:54;7.20;99.90
18658;DHT22;9458;50.942;5.074;2023-01-15T21:29:21;7.10;99.90
18658;DHT22;9458;50.942;5.074;2023-01-15T21:31:50;7.20;99.90
18658;DHT22;9458;50.942;5.074;2023-01-15T21:34:20;7.10;99.90
18658;DHT22;9458;50.942;5.074;2023-01-15T21:36:47;7.20;99.90
18658;DHT22;9458;50.942;5.074;2023-01-15T21:39:16;7.10;99.90
18658;DHT22;9458;50.942;5.074;2023-01-15T21:41:44;7.10;99.90
18658;DHT22;9458;50.942;5.074;2023-01-15T21:44:29;7.10;99.90
18658;DHT22;9458;50.942;5.074;2023-01-15T21:47:00;7.20;99.90
18658;DHT22;9458;50.942;5.074;2023-01-15T21:49:30;7.20;99.90
18658;DHT22;9458;50.942;5.074;2023-01-15T21:51:58;7.10;99.90
18658;DHT22;9458;50.942;5.074;2023-01-15T21:54:26;7.20;99.90
18658;DHT22;9458;50.942;5.074;2023-01-15T21:56:54;7.20;99.90
18658;DHT22;9458;50.942;5.074;2023-01-15T21:59:24;7.20;99.90
18658;DHT22;9458;50.942;5.074;2023-01-15T22:01:55;7.20;99.90
18658;DHT22;9458;50.942;5.074;2023-01-15T22:04:49;7.20;99.90
18658;DHT22;9458;50.942;5.074;2023-01-15T22:07:20;7.30;99.90
18658;DHT22;9458;50.942;5.074;2023-01-15T22:09:56;7.30;99.90
18658;DHT22;9458;50.942;5.074;2023-01-15T22:12:28;7.40;99.90
18658;DHT22;9458;50.942;5.074;2023-01-15T22:15:03;7.40;99.90
18658;DHT22;9458;50.942;5.074;2023-01-15T22:17:31;7.40;99.90